sensor_id;sensor_type;location;lat;lon;timestamp;temperature;humidity
53152;DHT22;39234;53.158;6.322;2022-09-13T00:00:42;17.10;99.90
53152;DHT22;39234;53.158;6.322;2022-09-13T00:03:10;14.70;99.90
53152;DHT22;39234;53.158;6.322;2022-09-13T00:05:37;16.80;99.90
53152;DHT22;39234;53.158;6.322;2022-09-13T00:08:04;16.90;99.90
53152;DHT22;39234;53.158;6.322;2022-09-13T00:10:30;17.00;99.90
53152;DHT22;39234;53.158;6.322;2022-09-13T00:12:58;17.00;99.90
53152;DHT22;39234;53.158;6.322;2022-09-13T00:15:24;16.90;99.90
53152;DHT22;39234;53.158;6.322;2022-09-13T00:17:50;17.00;99.90
53152;DHT22;39234;53.158;6.322;2022-09-13T00:20:16;16.80;99.90
53152;DHT22;39234;53.158;6.322;2022-09-13T00:22:41;17.10;99.90
53152;DHT22;39234;53.158;6.322;2022-09-13T00:25:07;16.80;99.90
53152;DHT22;39234;53.158;6.322;2022-09-13T00:27:34;16.80;99.90
53152;DHT22;39234;53.158;6.322;2022-09-13T00:30:01;16.80;99.90
53152;DHT22;39234;53.158;6.322;2022-09-13T00:32:27;16.80;99.90
53152;DHT22;39234;53.158;6.322;2022-09-13T00:34:53;16.60;99.90
53152;DHT22;39234;53.158;6.322;2022-09-13T00:37:19;16.90;99.90
53152;DHT22;39234;53.158;6.322;2022-09-13T00:39:45;16.60;99.90
53152;DHT22;39234;53.158;6.322;2022-09-13T00:42:14;16.70;99.90
53152;DHT22;39234;53.158;6.322;2022-09-13T00:44:48;16.80;99.90
53152;DHT22;39234;53.158;6.322;2022-09-13T00:47:19;16.80;99.90
53152;DHT22;39234;53.158;6.322;2022-09-13T00:49:46;16.50;99.90
53152;DHT22;39234;53.158;6.322;2022-09-13T00:52:17;16.60;99.90
53152;DHT22;39234;53.158;6.322;2022-09-13T00:54:53;16.60;99.90
53152;DHT22;39234;53.158;6.322;2022-09-13T00:57:21;16.90;99.90
53152;DHT22;39234;53.158;6.322;2022-09-13T01:02:26;16.90;99.90
53152;DHT22;39234;53.158;6.322;2022-09-13T01:04:53;16.80;99.90
53152;DHT22;39234;53.158;6.322;2022-09-13T01:07:19;16.70;99.90
53152;DHT22;39234;53.158;6.322;2022-09-13T01:09:47;16.70;99.90
53152;DHT22;39234;53.158;6.322;2022-09-13T01:15:09;16.70;99.90
53152;DHT22;39234;53.158;6.322;2022-09-13T01:17:35;16.60;99.90
53152;DHT22;39234;53.158;6.322;2022-09-13T01:20:05;16.80;99.90
53152;DHT22;39234;53.158;6.322;2022-09-13T01:31:07;16.70;99.90
53152;DHT22;39234;53.158;6.322;2022-09-13T01:39:04;16.80;99.90
53152;DHT22;39234;53.158;6.322;2022-09-13T01:44:18;16.80;99.90
53152;DHT22;39234;53.158;6.322;2022-09-13T01:49:45;16.70;99.90
53152;DHT22;39234;53.158;6.322;2022-09-13T02:03:01;16.80;99.90
53152;DHT22;39234;53.158;6.322;2022-09-13T02:05:35;16.80;99.90
53152;DHT22;39234;53.158;6.322;2022-09-13T02:08:24;16.80;99.90
53152;DHT22;39234;53.158;6.322;2022-09-13T02:10:59;16.70;99.90
53152;DHT22;39234;53.158;6.322;2022-09-13T02:13:33;16.70;99.90
53152;DHT22;39234;53.158;6.322;2022-09-13T02:16:10;16.70;99.90
53152;DHT22;39234;53.158;6.322;2022-09-13T02:18:44;16.70;99.90
53152;DHT22;39234;53.158;6.322;2022-09-13T02:21:18;16.70;99.90
53152;DHT22;39234;53.158;6.322;2022-09-13T02:23:59;16.80;99.90
53152;DHT22;39234;53.158;6.322;2022-09-13T02:26:27;16.70;99.90
53152;DHT22;39234;53.158;6.322;2022-09-13T02:28:55;16.70;99.90
53152;DHT22;39234;53.158;6.322;2022-09-13T02:31:35;16.80;99.90
53152;DHT22;39234;53.158;6.322;2022-09-13T02:34:24;16.80;99.90
53152;DHT22;39234;53.158;6.322;2022-09-13T02:36:54;16.80;99.90
53152;DHT22;39234;53.158;6.322;2022-09-13T02:39:23;16.90;99.90
53152;DHT22;39234;53.158;6.322;2022-09-13T02:42:21;16.90;99.90
53152;DHT22;39234;53.158;6.322;2022-09-13T02:44:57;16.80;99.90
53152;DHT22;39234;53.158;6.322;2022-09-13T02:53:28;16.70;99.90
53152;DHT22;39234;53.158;6.322;2022-09-13T02:56:12;16.70;99.90
53152;DHT22;39234;53.158;6.322;2022-09-13T02:59:04;16.80;99.90
53152;DHT22;39234;53.158;6.322;2022-09-13T03:01:29;17.00;99.90
53152;DHT22;39234;53.158;6.322;2022-09-13T03:03:55;17.00;99.90
53152;DHT22;39234;53.158;6.322;2022-09-13T03:06:26;16.90;99.90
53152;DHT22;39234;53.158;6.322;2022-09-13T03:08:53;17.10;99.90
53152;DHT22;39234;53.158;6.322;2022-09-13T03:11:51;16.70;99.90
53152;DHT22;39234;53.158;6.322;2022-09-13T03:17:31;16.90;99.90
53152;DHT22;39234;53.158;6.322;2022-09-13T03:26:11;16.80;99.90
53152;DHT22;39234;53.158;6.322;2022-09-13T03:29:03;16.70;99.90
53152;DHT22;39234;53.158;6.322;2022-09-13T03:31:58;16.60;99.90
53152;DHT22;39234;53.158;6.322;2022-09-13T03:40:10;16.80;99.90
53152;DHT22;39234;53.158;6.322;2022-09-13T03:42:45;16.60;99.90
53152;DHT22;39234;53.158;6.322;2022-09-13T03:45:14;16.90;99.90
53152;DHT22;39234;53.158;6.322;2022-09-13T03:47:42;16.70;99.90
53152;DHT22;39234;53.158;6.322;2022-09-13T03:50:15;16.80;99.90
53152;DHT22;39234;53.158;6.322;2022-09-13T03:52:43;16.80;99.90
53152;DHT22;39234;53.158;6.322;2022-09-13T03:55:09;16.80;99.90
53152;DHT22;39234;53.158;6.322;2022-09-13T03:57:36;16.70;99.90
53152;DHT22;39234;53.158;6.322;2022-09-13T04:00:02;16.60;99.90
53152;DHT22;39234;53.158;6.322;2022-09-13T04:02:28;16.60;99.90
53152;DHT22;39234;53.158;6.322;2022-09-13T04:04:54;16.80;99.90
53152;DHT22;39234;53.158;6.322;2022-09-13T04:07:23;16.80;99.90
53152;DHT22;39234;53.158;6.322;2022-09-13T04:09:49;16.70;99.90
53152;DHT22;39234;53.158;6.322;2022-09-13T04:12:16;16.90;99.90
53152;DHT22;39234;53.158;6.322;2022-09-13T04:14:42;16.80;99.90
53152;DHT22;39234;53.158;6.322;2022-09-13T04:17:08;16.70;99.90
53152;DHT22;39234;53.158;6.322;2022-09-13T04:19:34;16.80;99.90
53152;DHT22;39234;53.158;6.322;2022-09-13T04:22:00;16.70;99.90
53152;DHT22;39234;53.158;6.322;2022-09-13T04:24:27;16.80;99.90
53152;DHT22;39234;53.158;6.322;2022-09-13T04:26:54;16.50;99.90
53152;DHT22;39234;53.158;6.322;2022-09-13T04:29:22;16.80;99.90
53152;DHT22;39234;53.158;6.322;2022-09-13T04:31:50;16.70;99.90
53152;DHT22;39234;53.158;6.322;2022-09-13T04:34:16;16.70;99.90
53152;DHT22;39234;53.158;6.322;2022-09-13T04:36:43;16.70;99.90
53152;DHT22;39234;53.158;6.322;2022-09-13T04:39:10;16.50;99.90
53152;DHT22;39234;53.158;6.322;2022-09-13T04:41:42;16.60;99.90
53152;DHT22;39234;53.158;6.322;2022-09-13T04:44:09;16.60;99.90
53152;DHT22;39234;53.158;6.322;2022-09-13T04:46:35;16.60;99.90
53152;DHT22;39234;53.158;6.322;2022-09-13T04:49:00;16.70;99.90
53152;DHT22;39234;53.158;6.322;2022-09-13T04:51:26;16.70;99.90
53152;DHT22;39234;53.158;6.322;2022-09-13T04:53:53;16.60;99.90
53152;DHT22;39234;53.158;6.322;2022-09-13T04:56:20;16.60;99.90
53152;DHT22;39234;53.158;6.322;2022-09-13T04:58:49;16.60;99.90
53152;DHT22;39234;53.158;6.322;2022-09-13T05:01:15;16.40;99.90
53152;DHT22;39234;53.158;6.322;2022-09-13T05:03:41;16.40;99.90
53152;DHT22;39234;53.158;6.322;2022-09-13T05:06:09;16.50;99.90
53152;DHT22;39234;53.158;6.322;2022-09-13T05:08:36;16.60;99.90
53152;DHT22;39234;53.158;6.322;2022-09-13T05:11:02;16.60;99.90
53152;DHT22;39234;53.158;6.322;2022-09-13T05:13:28;16.40;99.90
53152;DHT22;39234;53.158;6.322;2022-09-13T05:15:58;16.60;99.90
53152;DHT22;39234;53.158;6.322;2022-09-13T05:18:25;16.60;99.90
53152;DHT22;39234;53.158;6.322;2022-09-13T05:20:56;16.60;99.90
53152;DHT22;39234;53.158;6.322;2022-09-13T05:23:22;16.50;99.90
53152;DHT22;39234;53.158;6.322;2022-09-13T05:25:56;16.60;99.90
53152;DHT22;39234;53.158;6.322;2022-09-13T05:28:22;16.60;99.90
53152;DHT22;39234;53.158;6.322;2022-09-13T05:30:59;16.60;99.90
53152;DHT22;39234;53.158;6.322;2022-09-13T05:33:27;16.60;99.90
53152;DHT22;39234;53.158;6.322;2022-09-13T05:35:53;16.50;99.90
53152;DHT22;39234;53.158;6.322;2022-09-13T05:38:20;16.40;99.90
53152;DHT22;39234;53.158;6.322;2022-09-13T05:40:46;16.60;99.90
53152;DHT22;39234;53.158;6.322;2022-09-13T05:43:12;16.60;99.90
53152;DHT22;39234;53.158;6.322;2022-09-13T05:45:38;16.60;99.90
53152;DHT22;39234;53.158;6.322;2022-09-13T05:48:04;16.60;99.90
53152;DHT22;39234;53.158;6.322;2022-09-13T05:50:30;16.60;99.90
53152;DHT22;39234;53.158;6.322;2022-09-13T05:52:56;16.60;99.90
53152;DHT22;39234;53.158;6.322;2022-09-13T05:55:22;16.60;99.90
53152;DHT22;39234;53.158;6.322;2022-09-13T05:57:48;16.60;99.90
53152;DHT22;39234;53.158;6.322;2022-09-13T06:00:15;16.70;99.90
53152;DHT22;39234;53.158;6.322;2022-09-13T06:02:41;16.60;99.90
53152;DHT22;39234;53.158;6.322;2022-09-13T06:05:08;16.70;99.90
53152;DHT22;39234;53.158;6.322;2022-09-13T06:07:35;16.60;99.90
53152;DHT22;39234;53.158;6.322;2022-09-13T06:10:03;16.60;99.90
53152;DHT22;39234;53.158;6.322;2022-09-13T06:12:29;16.70;99.90
53152;DHT22;39234;53.158;6.322;2022-09-13T06:14:55;16.80;99.90
53152;DHT22;39234;53.158;6.322;2022-09-13T06:17:21;16.90;99.90
53152;DHT22;39234;53.158;6.322;2022-09-13T06:19:46;16.80;99.90
53152;DHT22;39234;53.158;6.322;2022-09-13T06:22:12;16.90;99.90
53152;DHT22;39234;53.158;6.322;2022-09-13T06:24:38;16.80;99.90
53152;DHT22;39234;53.158;6.322;2022-09-13T06:27:04;16.80;99.90
53152;DHT22;39234;53.158;6.322;2022-09-13T06:29:30;17.00;99.90
53152;DHT22;39234;53.158;6.322;2022-09-13T06:31:56;17.00;99.90
53152;DHT22;39234;53.158;6.322;2022-09-13T06:34:22;17.90;99.90
53152;DHT22;39234;53.158;6.322;2022-09-13T06:36:48;18.20;99.90
53152;DHT22;39234;53.158;6.322;2022-09-13T06:39:14;18.50;99.90
53152;DHT22;39234;53.158;6.322;2022-09-13T06:41:40;18.50;99.90
53152;DHT22;39234;53.158;6.322;2022-09-13T06:44:05;18.30;99.90
53152;DHT22;39234;53.158;6.322;2022-09-13T06:46:33;18.10;99.90
53152;DHT22;39234;53.158;6.322;2022-09-13T06:49:02;18.10;99.90
53152;DHT22;39234;53.158;6.322;2022-09-13T06:51:28;17.90;99.90
53152;DHT22;39234;53.158;6.322;2022-09-13T06:53:57;17.80;99.90
53152;DHT22;39234;53.158;6.322;2022-09-13T06:58:55;17.90;99.90
53152;DHT22;39234;53.158;6.322;2022-09-13T07:01:23;18.20;99.90
53152;DHT22;39234;53.158;6.322;2022-09-13T07:04:01;18.00;99.90
53152;DHT22;39234;53.158;6.322;2022-09-13T07:06:29;18.00;99.90
53152;DHT22;39234;53.158;6.322;2022-09-13T07:08:57;18.10;99.90
53152;DHT22;39234;53.158;6.322;2022-09-13T07:11:25;18.10;99.90
53152;DHT22;39234;53.158;6.322;2022-09-13T07:13:53;18.10;99.90
53152;DHT22;39234;53.158;6.322;2022-09-13T07:16:21;17.90;99.90
53152;DHT22;39234;53.158;6.322;2022-09-13T07:18:55;17.80;99.90
53152;DHT22;39234;53.158;6.322;2022-09-13T07:21:22;17.90;99.90
53152;DHT22;39234;53.158;6.322;2022-09-13T07:23:49;18.00;99.90
53152;DHT22;39234;53.158;6.322;2022-09-13T07:26:15;18.20;99.90
53152;DHT22;39234;53.158;6.322;2022-09-13T07:28:43;18.80;99.90
53152;DHT22;39234;53.158;6.322;2022-09-13T07:31:14;19.10;99.90
53152;DHT22;39234;53.158;6.322;2022-09-13T07:33:41;19.30;99.90
53152;DHT22;39234;53.158;6.322;2022-09-13T07:36:08;19.60;99.90
53152;DHT22;39234;53.158;6.322;2022-09-13T07:38:40;19.90;99.90
53152;DHT22;39234;53.158;6.322;2022-09-13T07:41:09;19.90;99.90
53152;DHT22;39234;53.158;6.322;2022-09-13T07:43:36;20.20;99.90
53152;DHT22;39234;53.158;6.322;2022-09-13T07:48:30;20.10;99.90
53152;DHT22;39234;53.158;6.322;2022-09-13T07:51:08;20.00;99.90
53152;DHT22;39234;53.158;6.322;2022-09-13T07:53:35;20.20;99.90
53152;DHT22;39234;53.158;6.322;2022-09-13T07:56:05;20.30;99.90
53152;DHT22;39234;53.158;6.322;2022-09-13T07:58:32;20.00;99.90
53152;DHT22;39234;53.158;6.322;2022-09-13T08:01:10;20.10;99.90
53152;DHT22;39234;53.158;6.322;2022-09-13T08:03:38;20.00;99.90
53152;DHT22;39234;53.158;6.322;2022-09-13T08:06:05;19.90;99.90
53152;DHT22;39234;53.158;6.322;2022-09-13T08:08:31;20.00;99.90
53152;DHT22;39234;53.158;6.322;2022-09-13T08:10:58;20.00;99.90
53152;DHT22;39234;53.158;6.322;2022-09-13T08:13:24;20.10;99.90
53152;DHT22;39234;53.158;6.322;2022-09-13T08:15:50;20.10;99.90
53152;DHT22;39234;53.158;6.322;2022-09-13T08:18:17;20.20;99.90
53152;DHT22;39234;53.158;6.322;2022-09-13T08:20:43;19.90;99.90
53152;DHT22;39234;53.158;6.322;2022-09-13T08:23:10;19.70;99.90
53152;DHT22;39234;53.158;6.322;2022-09-13T08:25:37;19.60;99.90
53152;DHT22;39234;53.158;6.322;2022-09-13T08:28:13;19.50;99.90
53152;DHT22;39234;53.158;6.322;2022-09-13T08:30:40;19.60;99.90
53152;DHT22;39234;53.158;6.322;2022-09-13T08:33:07;19.50;99.90
53152;DHT22;39234;53.158;6.322;2022-09-13T08:35:33;19.60;99.90
53152;DHT22;39234;53.158;6.322;2022-09-13T08:37:59;19.60;99.90
53152;DHT22;39234;53.158;6.322;2022-09-13T08:40:27;20.50;99.90
53152;DHT22;39234;53.158;6.322;2022-09-13T08:45:40;19.40;99.90
53152;DHT22;39234;53.158;6.322;2022-09-13T08:48:13;19.40;99.90
53152;DHT22;39234;53.158;6.322;2022-09-13T08:50:41;19.20;99.90
53152;DHT22;39234;53.158;6.322;2022-09-13T08:53:26;19.30;99.90
53152;DHT22;39234;53.158;6.322;2022-09-13T08:56:11;19.30;99.90
53152;DHT22;39234;53.158;6.322;2022-09-13T08:59:14;19.40;99.90
53152;DHT22;39234;53.158;6.322;2022-09-13T09:07:05;18.80;99.90
53152;DHT22;39234;53.158;6.322;2022-09-13T09:10:02;18.90;99.90
53152;DHT22;39234;53.158;6.322;2022-09-13T09:12:41;18.80;99.90
53152;DHT22;39234;53.158;6.322;2022-09-13T09:15:19;19.30;99.90
53152;DHT22;39234;53.158;6.322;2022-09-13T09:20:49;19.20;99.90
53152;DHT22;39234;53.158;6.322;2022-09-13T09:24:03;19.30;99.90
53152;DHT22;39234;53.158;6.322;2022-09-13T09:26:19;19.10;99.90
53152;DHT22;39234;53.158;6.322;2022-09-13T09:32:36;19.80;99.90
53152;DHT22;39234;53.158;6.322;2022-09-13T09:40:52;20.00;99.90
53152;DHT22;39234;53.158;6.322;2022-09-13T09:43:25;19.90;99.90
53152;DHT22;39234;53.158;6.322;2022-09-13T09:45:54;19.70;99.90
53152;DHT22;39234;53.158;6.322;2022-09-13T09:48:34;19.90;99.90
53152;DHT22;39234;53.158;6.322;2022-09-13T09:51:03;20.10;99.90
53152;DHT22;39234;53.158;6.322;2022-09-13T09:53:45;20.30;99.90
53152;DHT22;39234;53.158;6.322;2022-09-13T09:56:21;20.40;99.90
53152;DHT22;39234;53.158;6.322;2022-09-13T09:58:49;20.60;99.90
53152;DHT22;39234;53.158;6.322;2022-09-13T10:01:20;20.60;99.90
53152;DHT22;39234;53.158;6.322;2022-09-13T10:04:05;20.70;99.90
53152;DHT22;39234;53.158;6.322;2022-09-13T10:06:34;20.50;99.90
53152;DHT22;39234;53.158;6.322;2022-09-13T10:17:02;20.00;99.90
53152;DHT22;39234;53.158;6.322;2022-09-13T10:19:29;19.80;99.90
53152;DHT22;39234;53.158;6.322;2022-09-13T10:22:05;19.60;99.90
53152;DHT22;39234;53.158;6.322;2022-09-13T10:24:34;19.70;99.90
53152;DHT22;39234;53.158;6.322;2022-09-13T10:27:01;19.80;99.90
53152;DHT22;39234;53.158;6.322;2022-09-13T10:29:29;20.00;99.90
53152;DHT22;39234;53.158;6.322;2022-09-13T10:31:55;20.40;99.90
53152;DHT22;39234;53.158;6.322;2022-09-13T10:34:27;20.50;99.90
53152;DHT22;39234;53.158;6.322;2022-09-13T10:37:02;21.00;99.90
53152;DHT22;39234;53.158;6.322;2022-09-13T10:39:31;21.00;99.90
53152;DHT22;39234;53.158;6.322;2022-09-13T10:42:01;20.90;99.90
53152;DHT22;39234;53.158;6.322;2022-09-13T10:44:52;20.70;99.90
53152;DHT22;39234;53.158;6.322;2022-09-13T10:47:32;20.80;99.90
53152;DHT22;39234;53.158;6.322;2022-09-13T10:52:51;21.20;99.90
53152;DHT22;39234;53.158;6.322;2022-09-13T11:00:16;22.20;99.90
53152;DHT22;39234;53.158;6.322;2022-09-13T11:08:32;21.50;99.90
53152;DHT22;39234;53.158;6.322;2022-09-13T11:11:12;21.30;99.90
53152;DHT22;39234;53.158;6.322;2022-09-13T11:26:59;21.30;99.90
53152;DHT22;39234;53.158;6.322;2022-09-13T11:32:51;21.30;99.90
53152;DHT22;39234;53.158;6.322;2022-09-13T11:41:24;21.50;99.90
53152;DHT22;39234;53.158;6.322;2022-09-13T11:47:07;21.20;99.90
53152;DHT22;39234;53.158;6.322;2022-09-13T11:55:42;21.20;99.90
53152;DHT22;39234;53.158;6.322;2022-09-13T11:58:43;21.00;99.90
53152;DHT22;39234;53.158;6.322;2022-09-13T12:01:12;21.10;99.90
53152;DHT22;39234;53.158;6.322;2022-09-13T12:03:44;21.20;99.90
53152;DHT22;39234;53.158;6.322;2022-09-13T12:06:37;21.30;99.90
53152;DHT22;39234;53.158;6.322;2022-09-13T12:14:58;21.70;99.90
53152;DHT22;39234;53.158;6.322;2022-09-13T12:17:46;21.70;99.90
53152;DHT22;39234;53.158;6.322;2022-09-13T12:20:34;21.40;99.90
53152;DHT22;39234;53.158;6.322;2022-09-13T12:23:05;20.80;99.90
53152;DHT22;39234;53.158;6.322;2022-09-13T12:25:51;20.70;99.90
53152;DHT22;39234;53.158;6.322;2022-09-13T12:28:43;20.70;99.90
53152;DHT22;39234;53.158;6.322;2022-09-13T12:31:16;20.90;99.90
53152;DHT22;39234;53.158;6.322;2022-09-13T12:33:44;20.90;99.90
53152;DHT22;39234;53.158;6.322;2022-09-13T12:47:07;21.30;99.90
53152;DHT22;39234;53.158;6.322;2022-09-13T13:01:16;21.10;99.90
53152;DHT22;39234;53.158;6.322;2022-09-13T13:03:58;21.20;99.90
53152;DHT22;39234;53.158;6.322;2022-09-13T13:06:40;21.20;99.90
53152;DHT22;39234;53.158;6.322;2022-09-13T13:09:44;20.80;99.90
53152;DHT22;39234;53.158;6.322;2022-09-13T13:12:31;21.00;99.90
53152;DHT22;39234;53.158;6.322;2022-09-13T13:15:52;20.80;99.90
53152;DHT22;39234;53.158;6.322;2022-09-13T13:17:53;20.90;99.90
53152;DHT22;39234;53.158;6.322;2022-09-13T13:26:10;21.00;99.90
53152;DHT22;39234;53.158;6.322;2022-09-13T13:33:55;20.80;99.90
53152;DHT22;39234;53.158;6.322;2022-09-13T13:36:28;20.70;99.90
53152;DHT22;39234;53.158;6.322;2022-09-13T13:39:01;20.90;99.90
53152;DHT22;39234;53.158;6.322;2022-09-13T13:46:43;21.30;99.90
53152;DHT22;39234;53.158;6.322;2022-09-13T14:00:26;21.20;99.90
53152;DHT22;39234;53.158;6.322;2022-09-13T14:17:09;20.30;99.90
53152;DHT22;39234;53.158;6.322;2022-09-13T14:19:45;20.20;99.90
53152;DHT22;39234;53.158;6.322;2022-09-13T14:22:15;20.20;99.90
53152;DHT22;39234;53.158;6.322;2022-09-13T14:24:56;20.20;99.90
53152;DHT22;39234;53.158;6.322;2022-09-13T14:27:29;20.40;99.90
53152;DHT22;39234;53.158;6.322;2022-09-13T14:30:00;20.30;99.90
53152;DHT22;39234;53.158;6.322;2022-09-13T14:32:31;20.10;99.90
53152;DHT22;39234;53.158;6.322;2022-09-13T14:34:59;20.20;99.90
53152;DHT22;39234;53.158;6.322;2022-09-13T14:37:35;20.20;99.90
53152;DHT22;39234;53.158;6.322;2022-09-13T14:40:15;19.90;99.90
53152;DHT22;39234;53.158;6.322;2022-09-13T14:42:44;20.00;99.90
53152;DHT22;39234;53.158;6.322;2022-09-13T14:45:15;19.90;99.90
53152;DHT22;39234;53.158;6.322;2022-09-13T14:50:17;20.00;99.90
53152;DHT22;39234;53.158;6.322;2022-09-13T14:52:49;19.70;99.90
53152;DHT22;39234;53.158;6.322;2022-09-13T14:55:19;19.70;99.90
53152;DHT22;39234;53.158;6.322;2022-09-13T14:57:51;19.60;99.90
53152;DHT22;39234;53.158;6.322;2022-09-13T15:00:20;19.60;99.90
53152;DHT22;39234;53.158;6.322;2022-09-13T15:02:52;19.90;99.90
53152;DHT22;39234;53.158;6.322;2022-09-13T15:05:19;19.70;99.90
53152;DHT22;39234;53.158;6.322;2022-09-13T15:07:46;19.70;99.90
53152;DHT22;39234;53.158;6.322;2022-09-13T15:13:09;19.70;99.90
53152;DHT22;39234;53.158;6.322;2022-09-13T15:15:40;19.50;99.90
53152;DHT22;39234;53.158;6.322;2022-09-13T15:18:33;19.40;99.90
53152;DHT22;39234;53.158;6.322;2022-09-13T15:21:04;19.40;99.90
53152;DHT22;39234;53.158;6.322;2022-09-13T15:23:34;19.50;99.90
53152;DHT22;39234;53.158;6.322;2022-09-13T15:31:10;19.00;99.90
53152;DHT22;39234;53.158;6.322;2022-09-13T15:33:36;19.00;99.90
53152;DHT22;39234;53.158;6.322;2022-09-13T15:36:32;19.00;99.90
53152;DHT22;39234;53.158;6.322;2022-09-13T15:39:12;18.90;99.90
53152;DHT22;39234;53.158;6.322;2022-09-13T15:41:51;18.90;99.90
53152;DHT22;39234;53.158;6.322;2022-09-13T15:44:17;19.00;99.90
53152;DHT22;39234;53.158;6.322;2022-09-13T15:46:50;18.80;99.90
53152;DHT22;39234;53.158;6.322;2022-09-13T15:49:19;19.10;99.90
53152;DHT22;39234;53.158;6.322;2022-09-13T15:51:46;18.90;99.90
53152;DHT22;39234;53.158;6.322;2022-09-13T15:54:16;21.40;99.90
53152;DHT22;39234;53.158;6.322;2022-09-13T15:56:46;19.10;99.90
53152;DHT22;39234;53.158;6.322;2022-09-13T15:59:13;18.90;99.90
53152;DHT22;39234;53.158;6.322;2022-09-13T16:01:40;19.00;99.90
53152;DHT22;39234;53.158;6.322;2022-09-13T16:04:06;19.10;99.90
53152;DHT22;39234;53.158;6.322;2022-09-13T16:06:33;18.90;99.90
53152;DHT22;39234;53.158;6.322;2022-09-13T16:08:58;19.00;99.90
53152;DHT22;39234;53.158;6.322;2022-09-13T16:11:25;18.80;99.90
53152;DHT22;39234;53.158;6.322;2022-09-13T16:13:51;18.90;99.90
53152;DHT22;39234;53.158;6.322;2022-09-13T16:16:17;18.80;99.90
53152;DHT22;39234;53.158;6.322;2022-09-13T16:18:43;19.00;99.90
53152;DHT22;39234;53.158;6.322;2022-09-13T16:21:09;18.90;99.90
53152;DHT22;39234;53.158;6.322;2022-09-13T16:23:34;18.80;99.90
53152;DHT22;39234;53.158;6.322;2022-09-13T16:26:00;19.00;99.90
53152;DHT22;39234;53.158;6.322;2022-09-13T16:28:26;18.90;99.90
53152;DHT22;39234;53.158;6.322;2022-09-13T16:30:53;18.80;99.90
53152;DHT22;39234;53.158;6.322;2022-09-13T16:33:19;18.70;99.90
53152;DHT22;39234;53.158;6.322;2022-09-13T16:35:45;18.50;99.90
53152;DHT22;39234;53.158;6.322;2022-09-13T16:38:11;18.40;99.90
53152;DHT22;39234;53.158;6.322;2022-09-13T16:40:41;18.40;99.90
53152;DHT22;39234;53.158;6.322;2022-09-13T16:43:07;18.30;99.90
53152;DHT22;39234;53.158;6.322;2022-09-13T16:45:36;18.20;99.90
53152;DHT22;39234;53.158;6.322;2022-09-13T16:48:02;18.00;99.90
53152;DHT22;39234;53.158;6.322;2022-09-13T16:50:28;18.10;99.90
53152;DHT22;39234;53.158;6.322;2022-09-13T16:52:54;18.10;99.90
53152;DHT22;39234;53.158;6.322;2022-09-13T16:55:20;18.00;99.90
53152;DHT22;39234;53.158;6.322;2022-09-13T16:57:46;17.70;99.90
53152;DHT22;39234;53.158;6.322;2022-09-13T17:00:15;17.80;99.90
53152;DHT22;39234;53.158;6.322;2022-09-13T17:02:41;17.80;99.90
53152;DHT22;39234;53.158;6.322;2022-09-13T17:05:07;17.80;99.90
53152;DHT22;39234;53.158;6.322;2022-09-13T17:07:35;17.70;99.90
53152;DHT22;39234;53.158;6.322;2022-09-13T17:10:03;17.70;99.90
53152;DHT22;39234;53.158;6.322;2022-09-13T17:12:30;17.50;99.90
53152;DHT22;39234;53.158;6.322;2022-09-13T17:14:55;17.50;99.90
53152;DHT22;39234;53.158;6.322;2022-09-13T17:17:22;17.50;99.90
53152;DHT22;39234;53.158;6.322;2022-09-13T17:19:48;17.60;99.90
53152;DHT22;39234;53.158;6.322;2022-09-13T17:22:14;17.20;99.90
53152;DHT22;39234;53.158;6.322;2022-09-13T17:24:41;17.40;99.90
53152;DHT22;39234;53.158;6.322;2022-09-13T17:27:07;17.30;99.90
53152;DHT22;39234;53.158;6.322;2022-09-13T17:29:34;17.40;99.90
53152;DHT22;39234;53.158;6.322;2022-09-13T17:32:02;17.10;99.90
53152;DHT22;39234;53.158;6.322;2022-09-13T17:34:28;17.20;99.90
53152;DHT22;39234;53.158;6.322;2022-09-13T17:36:55;17.20;99.90
53152;DHT22;39234;53.158;6.322;2022-09-13T17:39:21;17.30;99.90
53152;DHT22;39234;53.158;6.322;2022-09-13T17:41:47;17.20;99.90
53152;DHT22;39234;53.158;6.322;2022-09-13T17:44:14;17.40;99.90
53152;DHT22;39234;53.158;6.322;2022-09-13T17:46:41;17.00;99.90
53152;DHT22;39234;53.158;6.322;2022-09-13T17:49:07;17.00;99.90
53152;DHT22;39234;53.158;6.322;2022-09-13T17:51:33;16.90;99.90
53152;DHT22;39234;53.158;6.322;2022-09-13T17:54:02;16.80;99.90
53152;DHT22;39234;53.158;6.322;2022-09-13T17:56:34;16.90;99.90
53152;DHT22;39234;53.158;6.322;2022-09-13T17:59:15;16.70;99.90
53152;DHT22;39234;53.158;6.322;2022-09-13T18:01:47;16.50;99.90
53152;DHT22;39234;53.158;6.322;2022-09-13T18:04:15;16.50;99.90
53152;DHT22;39234;53.158;6.322;2022-09-13T18:06:41;16.40;99.90
53152;DHT22;39234;53.158;6.322;2022-09-13T18:09:11;16.30;99.90
53152;DHT22;39234;53.158;6.322;2022-09-13T18:11:37;16.40;99.90
53152;DHT22;39234;53.158;6.322;2022-09-13T18:14:04;16.20;99.90
53152;DHT22;39234;53.158;6.322;2022-09-13T18:16:29;16.10;99.90
53152;DHT22;39234;53.158;6.322;2022-09-13T18:18:56;16.00;99.90
53152;DHT22;39234;53.158;6.322;2022-09-13T18:21:24;16.10;99.90
53152;DHT22;39234;53.158;6.322;2022-09-13T18:23:52;15.90;99.90
53152;DHT22;39234;53.158;6.322;2022-09-13T18:26:21;16.40;99.90
53152;DHT22;39234;53.158;6.322;2022-09-13T18:28:52;15.90;99.90
53152;DHT22;39234;53.158;6.322;2022-09-13T18:31:18;15.80;99.90
53152;DHT22;39234;53.158;6.322;2022-09-13T18:33:44;16.00;99.90
53152;DHT22;39234;53.158;6.322;2022-09-13T18:36:13;15.90;99.90
53152;DHT22;39234;53.158;6.322;2022-09-13T18:38:44;15.60;99.90
53152;DHT22;39234;53.158;6.322;2022-09-13T18:41:19;15.80;99.90
53152;DHT22;39234;53.158;6.322;2022-09-13T18:43:47;13.80;99.90
53152;DHT22;39234;53.158;6.322;2022-09-13T18:46:16;15.40;99.90
53152;DHT22;39234;53.158;6.322;2022-09-13T18:48:44;15.40;99.90
53152;DHT22;39234;53.158;6.322;2022-09-13T18:51:16;15.50;99.90
53152;DHT22;39234;53.158;6.322;2022-09-13T18:53:42;15.40;99.90
53152;DHT22;39234;53.158;6.322;2022-09-13T18:56:11;15.40;99.90
53152;DHT22;39234;53.158;6.322;2022-09-13T18:58:39;15.30;99.90
53152;DHT22;39234;53.158;6.322;2022-09-13T19:01:15;15.40;99.90
53152;DHT22;39234;53.158;6.322;2022-09-13T19:03:48;15.30;99.90
53152;DHT22;39234;53.158;6.322;2022-09-13T19:06:20;15.30;99.90
53152;DHT22;39234;53.158;6.322;2022-09-13T19:08:47;15.10;99.90
53152;DHT22;39234;53.158;6.322;2022-09-13T19:11:13;15.20;99.90
53152;DHT22;39234;53.158;6.322;2022-09-13T19:13:40;14.90;99.90
53152;DHT22;39234;53.158;6.322;2022-09-13T19:16:08;15.00;99.90
53152;DHT22;39234;53.158;6.322;2022-09-13T19:18:36;14.80;99.90
53152;DHT22;39234;53.158;6.322;2022-09-13T19:21:03;14.70;99.90
53152;DHT22;39234;53.158;6.322;2022-09-13T19:23:30;14.80;99.90
53152;DHT22;39234;53.158;6.322;2022-09-13T19:28:37;14.70;99.90